Time;durP1;ratioP1;P1;durP2;ratioP2;P2;SDS_P1;SDS_P2;PMS_P1;PMS_P2;Temp;Humidity;BMP_temperature;BMP_pressure;BME280_temperature;BME280_humidity;BME280_pressure;Samples;Min_cycle;Max_cycle;Signal;HPM_P1;HPM_P2
2023/07/06 00:23:18;;;;;;;13.23;3.45;;;;;;;14.00;100.00;101520.34;6013696;23;20049;-74
2023/07/06 00:25:44;;;;;;;10.43;3.30;;;;;;;14.02;100.00;101520.13;4968939;28;20062;-73
2023/07/06 00:28:14;;;;;;;11.47;3.40;;;;;;;14.08;100.00;101516.56;4970343;28;20363;-74
2023/07/06 00:33:19;;;;;;;12.20;3.38;;;;;;;14.00;100.00;101517.59;4969730;28;20487;-73
2023/07/06 00:35:45;;;;;;;8.80;2.95;;;;;;;14.00;100.00;101522.22;4969161;28;20057;-72
2023/07/06 00:38:15;;;;;;;13.38;3.53;;;;;;;13.90;100.00;101513.47;4969607;28;20069;-73
2023/07/06 00:40:50;;;;;;;14.20;3.33;;;;;;;13.85;100.00;101510.47;4986144;28;20050;-73
2023/07/06 00:43:20;;;;;;;9.50;2.90;;;;;;;13.83;100.00;101513.44;4986031;28;20058;-73
2023/07/06 00:45:50;;;;;;;10.18;3.15;;;;;;;13.86;100.00;101512.19;4966021;28;20022;-73
2023/07/06 00:48:22;;;;;;;11.90;4.05;;;;;;;13.86;100.00;101521.31;4968653;28;20026;-73
2023/07/06 00:50:55;;;;;;;16.05;3.88;;;;;;;13.89;100.00;101518.16;4969550;28;20027;-73
2023/07/06 00:53:27;;;;;;;14.50;3.22;;;;;;;13.95;100.00;101513.72;4969597;28;20026;-74
2023/07/06 00:55:57;;;;;;;15.10;3.65;;;;;;;13.93;100.00;101513.09;4975056;28;20054;-73
2023/07/06 00:58:31;;;;;;;16.88;3.22;;;;;;;13.92;100.00;101511.41;4975827;28;20027;-74
2023/07/06 01:01:00;;;;;;;19.17;4.28;;;;;;;13.93;100.00;101515.84;4971559;28;20494;-74
2023/07/06 01:03:26;;;;;;;16.83;3.67;;;;;;;13.93;100.00;101510.34;4975257;28;20057;-74
2023/07/06 01:06:00;;;;;;;12.50;3.47;;;;;;;13.95;100.00;101509.09;4972916;28;20105;-75
2023/07/06 01:08:26;;;;;;;15.73;3.72;;;;;;;13.91;100.00;101515.19;4973990;28;20486;-75
2023/07/06 01:10:53;;;;;;;14.05;3.70;;;;;;;13.94;100.00;101510.09;4973871;28;20030;-74
2023/07/06 01:13:19;;;;;;;;;;;;;;;13.89;100.00;101509.03;4969427;28;20177;-75
2023/07/06 01:15:54;;;;;;;17.42;4.38;;;;;;;13.82;100.00;101508.16;4987918;28;20437;-75
2023/07/06 01:18:26;;;;;;;9.02;4.30;;;;;;;13.75;100.00;101507.22;4968396;28;20367;-74
2023/07/06 01:21:25;;;;;;;11.95;3.65;;;;;;;13.79;100.00;101508.53;4974513;28;20062;-74
2023/07/06 01:24:15;;;;;;;15.15;3.95;;;;;;;13.76;100.00;101512.53;4968453;28;20106;-74
2023/07/06 01:27:02;;;;;;;24.60;5.18;;;;;;;13.80;100.00;101510.25;4970446;28;20047;-74
2023/07/06 01:29:35;;;;;;;11.55;3.75;;;;;;;13.75;100.00;101512.75;4971868;28;20506;-75
2023/07/06 01:32:04;;;;;;;18.48;4.72;;;;;;;13.78;100.00;101506.84;4968498;28;20033;-75
2023/07/06 01:34:42;;;;;;;16.13;4.22;;;;;;;13.70;100.00;101513.34;4971789;28;20031;-75
2023/07/06 01:37:25;;;;;;;;;;;;;;;13.71;100.00;101514.22;4974168;28;20029;-75
2023/07/06 01:39:51;;;;;;;17.25;4.28;;;;;;;13.68;100.00;101511.84;4972760;28;19922;-74
2023/07/06 01:42:27;;;;;;;18.95;3.85;;;;;;;13.72;100.00;101510.41;4987035;28;20116;-74
2023/07/06 01:44:57;;;;;;;16.65;4.38;;;;;;;13.70;100.00;101507.00;4972589;28;20037;-74
2023/07/06 01:47:24;;;;;;;29.40;4.13;;;;;;;13.76;100.00;101515.31;4966134;28;20038;-75
2023/07/06 01:49:51;;;;;;;;;;;;;;;13.72;100.00;101516.75;4972976;28;20076;-74
2023/07/06 01:52:16;;;;;;;17.83;4.80;;;;;;;13.71;100.00;101508.72;4988883;28;19925;-74
2023/07/06 01:55:02;;;;;;;16.27;3.60;;;;;;;13.73;100.00;101520.38;4971475;28;20027;-73
2023/07/06 01:57:33;;;;;;;15.02;4.95;;;;;;;13.80;100.00;101515.75;4969551;28;20042;-74
2023/07/06 02:00:05;;;;;;;17.23;4.05;;;;;;;13.89;100.00;101517.28;4973077;28;20530;-74
2023/07/06 02:02:33;;;;;;;26.00;4.68;;;;;;;13.90;100.00;101513.47;4970726;28;20169;-74
2023/07/06 02:05:00;;;;;;;20.73;4.38;;;;;;;13.96;100.00;101508.03;4971807;28;20434;-74
2023/07/06 02:07:27;;;;;;;24.73;5.85;;;;;;;13.93;100.00;101502.06;4980725;28;20027;-74
2023/07/06 02:09:54;;;;;;;26.88;5.07;;;;;;;13.89;100.00;101520.06;4972822;28;20023;-74
2023/07/06 02:12:19;;;;;;;;;;;;;;;13.86;100.00;101506.66;4971618;28;20070;-74
2023/07/06 02:14:48;;;;;;;25.92;5.35;;;;;;;13.88;100.00;101507.34;4973095;28;19969;-75
2023/07/06 02:17:15;;;;;;;25.50;4.22;;;;;;;13.89;100.00;101517.28;4972646;28;20063;-74
2023/07/06 02:19:42;;;;;;;17.08;4.20;;;;;;;13.93;100.00;101511.16;4972242;28;20024;-73
2023/07/06 02:22:09;;;;;;;22.83;4.40;;;;;;;13.96;100.00;101509.91;4970251;28;20035;-74
2023/07/06 02:24:36;;;;;;;24.48;5.07;;;;;;;13.96;100.00;101516.28;4970253;28;20053;-73
2023/07/06 02:27:03;;;;;;;23.33;5.07;;;;;;;14.02;100.00;101500.84;4971664;28;20062;-74
2023/07/06 02:29:29;;;;;;;21.70;4.50;;;;;;;14.03;100.00;101502.56;4970743;28;20038;-74
2023/07/06 02:31:55;;;;;;;22.13;4.93;;;;;;;14.00;100.00;101509.31;4939236;28;20038;-75
2023/07/06 02:34:26;;;;;;;24.83;6.23;;;;;;;14.03;100.00;101506.16;4971635;28;20018;-75
2023/07/06 02:36:53;;;;;;;17.48;5.50;;;;;;;14.09;100.00;101510.84;4972867;28;20081;-74
2023/07/06 02:39:20;;;;;;;19.13;5.00;;;;;;;14.06;100.00;101510.41;4973043;28;20027;-74
2023/07/06 02:41:46;;;;;;;21.85;5.97;;;;;;;14.14;100.00;101513.00;4969868;28;20038;-74
2023/07/06 02:44:12;;;;;;;19.58;5.20;;;;;;;14.10;100.00;101517.22;4970645;28;20034;-75
2023/07/06 02:46:37;;;;;;;24.53;6.17;;;;;;;14.16;100.00;101510.88;4968879;28;20517;-74
2023/07/06 02:49:03;;;;;;;22.63;5.30;;;;;;;14.15;100.00;101518.28;4973671;28;20053;-75
2023/07/06 02:51:35;;;;;;;18.83;5.73;;;;;;;14.19;100.00;101514.09;4971313;28;20505;-74
2023/07/06 02:54:01;;;;;;;18.73;5.07;;;;;;;14.17;100.00;101516.19;4973420;28;20303;-76
2023/07/06 02:56:26;;;;;;;15.90;6.23;;;;;;;14.19;100.00;101518.75;4970051;28;20034;-74
2023/07/06 02:58:52;;;;;;;27.83;6.47;;;;;;;14.18;100.00;101525.28;4970463;28;20019;-76
2023/07/06 03:01:18;;;;;;;19.13;4.80;;;;;;;14.19;100.00;101527.88;4969816;28;20391;-74
2023/07/06 03:03:44;;;;;;;26.43;7.27;;;;;;;14.21;100.00;101527.69;4971806;28;20347;-75
2023/07/06 03:06:09;;;;;;;24.50;6.13;;;;;;;14.21;100.00;101528.56;4969174;28;20035;-75
2023/07/06 03:08:35;;;;;;;24.30;6.80;;;;;;;14.29;100.00;101527.50;4968411;28;20431;-75
2023/07/06 03:11:00;;;;;;;25.47;7.20;;;;;;;14.30;100.00;101526.47;4973303;28;20042;-74
2023/07/06 03:13:28;;;;;;;33.93;7.07;;;;;;;14.31;100.00;101530.91;4969311;28;20106;-74
2023/07/06 03:15:56;;;;;;;30.27;6.55;;;;;;;14.35;100.00;101538.56;4967427;28;20075;-74
2023/07/06 03:18:23;;;;;;;31.25;7.72;;;;;;;14.38;100.00;101540.94;4968866;28;20073;-74
2023/07/06 03:20:50;;;;;;;27.30;6.43;;;;;;;14.39;100.00;101539.00;4966908;28;20035;-73
2023/07/06 03:23:16;;;;;;;23.42;6.68;;;;;;;14.41;100.00;101540.50;4971017;28;20459;-74
2023/07/06 03:25:41;;;;;;;25.98;7.30;;;;;;;14.39;100.00;101539.88;4969418;28;20050;-74
2023/07/06 03:28:07;;;;;;;42.23;7.50;;;;;;;14.36;100.00;101544.94;4987830;28;20422;-75
2023/07/06 03:30:32;;;;;;;24.10;7.53;;;;;;;14.32;100.00;101554.66;4969781;28;20019;-74
2023/07/06 03:33:00;;;;;;;32.53;6.90;;;;;;;14.29;100.00;101553.16;4986521;28;20034;-75
2023/07/06 03:35:28;;;;;;;28.50;7.30;;;;;;;14.22;100.00;101546.78;4971056;28;20482;-74
2023/07/06 03:37:58;;;;;;;26.58;8.20;;;;;;;14.19;100.00;101554.56;4979193;28;20039;-75
2023/07/06 03:40:26;;;;;;;34.38;7.50;;;;;;;14.19;100.00;101549.06;4971372;28;20063;-75
2023/07/06 03:42:56;;;;;;;34.63;8.68;;;;;;;14.15;100.00;101559.63;4966958;28;20035;-75
2023/07/06 03:45:23;;;;;;;30.70;7.70;;;;;;;14.14;100.00;101557.09;4970004;28;20039;-75
2023/07/06 03:47:50;;;;;;;33.67;7.45;;;;;;;14.07;100.00;101551.53;4970314;28;20030;-75
2023/07/06 03:50:17;;;;;;;22.08;7.15;;;;;;;14.06;100.00;101555.34;4971781;28;20093;-75
2023/07/06 03:52:44;;;;;;;36.20;8.40;;;;;;;14.15;100.00;101558.78;4970563;28;20031;-75
2023/07/06 03:55:09;;;;;;;;;;;;;;;14.07;100.00;101558.94;4972182;28;20098;-75
2023/07/06 03:57:35;;;;;;;32.83;7.72;;;;;;;14.00;100.00;101560.81;4971355;28;19910;-75
2023/07/06 04:00:07;;;;;;;28.17;7.73;;;;;;;13.99;100.00;101548.09;4966537;28;20114;-75
2023/07/06 04:02:33;;;;;;;27.15;8.10;;;;;;;13.96;100.00;101563.13;4986606;28;20375;-75
2023/07/06 04:04:58;;;;;;;35.90;9.17;;;;;;;13.95;100.00;101566.06;4968825;28;20117;-75
2023/07/06 04:07:24;;;;;;;31.50;9.93;;;;;;;13.94;100.00;101567.94;4966448;28;20031;-75
2023/07/06 04:09:49;;;;;;;24.47;8.20;;;;;;;13.99;100.00;101576.47;4969346;28;20077;-75
2023/07/06 04:12:17;;;;;;;31.77;7.80;;;;;;;14.01;100.00;101582.66;4969237;28;20037;-75
2023/07/06 04:14:44;;;;;;;34.00;9.88;;;;;;;14.05;100.00;101580.34;4968373;28;20037;-75
2023/07/06 04:17:10;;;;;;;;;;;;;;;14.08;100.00;101582.69;4983893;28;20037;-75
2023/07/06 04:19:36;;;;;;;29.10;10.35;;;;;;;14.09;100.00;101576.97;4970587;28;19910;-75
2023/07/06 04:22:03;;;;;;;31.65;9.73;;;;;;;14.17;100.00;101585.09;4972683;28;20041;-75
2023/07/06 04:24:31;;;;;;;34.28;11.32;;;;;;;14.17;100.00;101579.56;4968836;28;20042;-75
2023/07/06 04:26:59;;;;;;;41.60;11.50;;;;;;;14.17;100.00;101582.31;4968545;28;20054;-75
2023/07/06 04:29:26;;;;;;;33.97;12.43;;;;;;;14.25;100.00;101576.66;4970942;28;20545;-75
2023/07/06 04:31:55;;;;;;;39.72;14.25;;;;;;;14.31;100.00;101583.28;4972389;28;20514;-76
2023/07/06 04:34:21;;;;;;;41.08;12.48;;;;;;;14.32;100.00;101587.75;4971569;28;20039;-75
2023/07/06 04:36:48;;;;;;;44.95;13.50;;;;;;;14.34;100.00;101585.63;4973426;28;20503;-75
2023/07/06 04:39:14;;;;;;;42.50;14.40;;;;;;;14.44;100.00;101595.22;4973313;28;20035;-75
2023/07/06 04:41:39;;;;;;;35.83;15.00;;;;;;;14.54;100.00;101592.09;4972163;28;20368;-75
2023/07/06 04:44:07;;;;;;;52.90;14.73;;;;;;;14.64;100.00;101604.47;4970162;28;20030;-75
2023/07/06 04:46:33;;;;;;;35.67;15.30;;;;;;;14.60;100.00;101599.53;4971979;28;20058;-74
2023/07/06 04:49:01;;;;;;;46.37;14.33;;;;;;;14.66;100.00;101601.47;4971795;28;20481;-75
2023/07/06 04:51:27;;;;;;;40.47;16.35;;;;;;;14.75;100.00;101600.25;4987788;28;20065;-74
2023/07/06 04:53:52;;;;;;;53.73;16.33;;;;;;;14.90;100.00;101609.22;4974112;28;20439;-74
2023/07/06 04:56:18;;;;;;;42.27;16.43;;;;;;;15.08;100.00;101595.69;4971780;28;20117;-75
2023/07/06 04:58:45;;;;;;;40.83;15.97;;;;;;;15.24;100.00;101603.59;4967595;28;20367;-75
2023/07/06 05:01:10;;;;;;;42.42;16.17;;;;;;;15.32;100.00;101592.38;4963522;28;20122;-75
2023/07/06 05:03:36;;;;;;;42.73;16.10;;;;;;;15.32;100.00;101606.16;4971364;28;20118;-75
2023/07/06 05:06:05;;;;;;;39.30;14.53;;;;;;;15.36;100.00;101599.22;4968093;28;20030;-75
2023/07/06 05:08:31;;;;;;;42.28;15.85;;;;;;;15.37;100.00;101610.00;4965242;28;20031;-75
2023/07/06 05:16:07;;;;;;;36.15;14.43;;;;;;;15.37;100.00;101611.94;6079354;23;19916;-74
2023/07/06 05:18:32;;;;;;;28.80;12.97;;;;;;;15.40;100.00;101620.66;4987190;28;20030;-74
2023/07/06 05:20:58;;;;;;;44.37;15.23;;;;;;;15.36;100.00;101613.00;4990074;28;20022;-74
2023/07/06 05:23:28;;;;;;;40.20;13.70;;;;;;;15.34;100.00;101624.25;4992544;28;20061;-74
2023/07/06 05:26:02;;;;;;;45.33;15.15;;;;;;;15.36;100.00;101622.13;4994460;28;20045;-75
2023/07/06 05:28:30;;;;;;;43.45;16.75;;;;;;;15.32;100.00;101620.78;4992103;28;20500;-74
2023/07/06 05:30:56;;;;;;;41.15;14.57;;;;;;;15.39;100.00;101618.09;4991446;28;20109;-73
2023/07/06 05:33:22;;;;;;;41.53;15.57;;;;;;;15.42;100.00;101623.22;4992307;28;20486;-74
2023/07/06 05:35:49;;;;;;;37.72;15.18;;;;;;;15.48;100.00;101614.91;4993640;28;20028;-74
2023/07/06 05:38:14;;;;;;;38.83;15.15;;;;;;;15.50;100.00;101615.56;4993302;28;20038;-75
2023/07/06 05:40:41;;;;;;;40.27;15.57;;;;;;;15.58;100.00;101625.56;4989745;28;20038;-75
2023/07/06 05:43:09;;;;;;;39.95;14.57;;;;;;;15.64;100.00;101628.31;4993352;28;20113;-75
2023/07/06 05:45:34;;;;;;;44.28;16.48;;;;;;;15.70;100.00;101624.69;4989691;28;20058;-75
2023/07/06 05:48:01;;;;;;;38.83;15.77;;;;;;;15.78;100.00;101632.81;4993301;28;20498;-73
2023/07/06 05:50:26;;;;;;;33.35;15.85;;;;;;;15.78;100.00;101631.94;4990610;28;20541;-73
2023/07/06 05:52:52;;;;;;;41.03;16.00;;;;;;;15.91;100.00;101624.50;4991780;28;20087;-74
2023/07/06 05:55:18;;;;;;;42.53;16.57;;;;;;;15.97;100.00;101629.19;4991654;28;20053;-73
2023/07/06 05:57:45;;;;;;;43.00;16.38;;;;;;;16.05;100.00;101622.56;4991814;28;20022;-75
2023/07/06 06:00:10;;;;;;;;;;;;;;;16.01;100.00;101627.69;4992247;28;20046;-74
2023/07/06 06:02:37;;;;;;;41.38;14.07;;;;;;;16.45;100.00;101635.31;4992055;28;19948;-74
2023/07/06 06:05:04;;;;;;;42.83;13.68;;;;;;;16.41;100.00;101639.56;4988868;28;20053;-73
2023/07/06 06:07:31;;;;;;;;;;;;;;;16.41;100.00;101642.34;4989060;28;20375;-74
2023/07/06 06:09:56;;;;;;;44.90;13.60;;;;;;;16.32;100.00;101635.34;4993044;28;20368;-74
2023/07/06 06:12:24;;;;;;;41.97;12.98;;;;;;;16.43;100.00;101640.22;4992425;28;20030;-74
2023/07/06 06:14:50;;;;;;;38.63;13.45;;;;;;;16.34;100.00;101641.47;4993388;28;20035;-74
2023/07/06 06:17:18;;;;;;;39.28;11.77;;;;;;;16.39;100.00;101645.31;4992090;28;20054;-74
2023/07/06 06:19:45;;;;;;;34.15;12.13;;;;;;;16.38;100.00;101651.06;4990479;28;20034;-74
2023/07/06 06:22:12;;;;;;;48.50;13.05;;;;;;;16.47;100.00;101655.31;4992034;28;20117;-74
2023/07/06 06:24:38;;;;;;;36.10;13.10;;;;;;;16.66;100.00;101660.78;4987662;28;20030;-74
2023/07/06 06:27:05;;;;;;;44.10;11.77;;;;;;;16.79;100.00;101655.22;4991609;28;20445;-74
2023/07/06 06:29:32;;;;;;;39.83;13.15;;;;;;;16.80;100.00;101658.84;4991128;28;20482;-73
2023/07/06 06:31:59;;;;;;;35.05;12.25;;;;;;;16.81;100.00;101655.03;4991561;28;20034;-73
2023/07/06 06:34:25;;;;;;;32.58;12.52;;;;;;;16.73;100.00;101667.16;4992680;28;20534;-72
2023/07/06 06:36:50;;;;;;;40.42;12.60;;;;;;;17.13;100.00;101659.56;4990803;28;20466;-71
2023/07/06 06:39:16;;;;;;;42.27;13.40;;;;;;;17.34;100.00;101659.25;4992075;28;20034;-71
2023/07/06 06:41:42;;;;;;;40.00;12.43;;;;;;;17.25;100.00;101664.19;4991484;28;20108;-72
2023/07/06 06:44:11;;;;;;;30.15;11.40;;;;;;;17.24;100.00;101661.66;4991001;28;20060;-71
2023/07/06 06:46:37;;;;;;;29.10;11.35;;;;;;;17.65;100.00;101660.13;4991203;28;20130;-72
2023/07/06 06:49:02;;;;;;;31.07;11.27;;;;;;;18.04;100.00;101664.53;4992807;28;20054;-71
2023/07/06 06:51:28;;;;;;;30.63;11.63;;;;;;;19.43;97.53;101667.31;4989617;28;20030;-71
2023/07/06 06:53:53;;;;;;;33.33;9.50;;;;;;;19.14;94.69;101671.72;4992177;28;20112;-71
2023/07/06 06:56:19;;;;;;;38.23;10.53;;;;;;;19.99;96.89;101674.13;4989664;28;20084;-72
2023/07/06 06:58:46;;;;;;;26.20;9.45;;;;;;;20.46;88.95;101675.06;4991116;28;20085;-71
2023/07/06 07:01:13;;;;;;;30.10;9.07;;;;;;;19.83;88.34;101676.75;4989772;28;20058;-71
2023/07/06 07:03:39;;;;;;;23.17;9.32;;;;;;;19.74;89.94;101676.22;4991697;28;20030;-72
2023/07/06 07:06:13;;;;;;;31.48;10.90;;;;;;;20.74;85.64;101678.81;4987751;28;20099;-72
2023/07/06 07:08:40;;;;;;;29.35;9.43;;;;;;;19.87;86.95;101677.97;4991665;28;20042;-72
2023/07/06 07:11:06;;;;;;;24.27;9.40;;;;;;;19.18;89.67;101680.44;4989665;28;20038;-72
2023/07/06 07:13:38;;;;;;;26.92;10.15;;;;;;;19.79;90.62;101675.53;4989602;28;20458;-71
2023/07/06 07:16:05;;;;;;;22.52;10.20;;;;;;;20.01;88.44;101673.91;4990212;28;20034;-72
2023/07/06 07:18:31;;;;;;;25.05;9.27;;;;;;;20.81;84.51;101693.44;4991309;28;20121;-71
2023/07/06 07:20:57;;;;;;;25.35;9.00;;;;;;;20.60;83.26;101680.13;4987987;28;20034;-72
2023/07/06 07:23:24;;;;;;;24.63;10.20;;;;;;;21.11;79.60;101685.81;4992578;28;20042;-71
2023/07/06 07:25:50;;;;;;;24.58;9.45;;;;;;;21.51;78.39;101689.44;4989720;28;20035;-72
2023/07/06 07:28:16;;;;;;;26.80;9.90;;;;;;;21.99;77.54;101683.41;4990402;28;20125;-71
2023/07/06 07:30:59;;;;;;;23.43;9.70;;;;;;;22.00;75.69;101690.69;4988947;28;20130;-72
2023/07/06 07:33:27;;;;;;;25.50;8.90;;;;;;;22.23;75.50;101696.13;4980502;28;20027;-72
2023/07/06 07:35:52;;;;;;;22.65;8.20;;;;;;;22.21;75.91;101690.81;4989037;28;20104;-71
2023/07/06 07:38:19;;;;;;;24.48;8.43;;;;;;;22.48;75.19;101691.00;4990543;28;20125;-72
2023/07/06 07:40:55;;;;;;;31.05;8.70;;;;;;;22.36;73.47;101695.81;4987930;28;20038;-71
2023/07/06 07:43:28;;;;;;;34.10;9.85;;;;;;;22.51;75.19;101691.31;4991713;28;20055;-71
2023/07/06 07:45:57;;;;;;;19.65;8.82;;;;;;;22.62;73.88;101700.72;4987665;28;20026;-71
2023/07/06 07:48:24;;;;;;;23.67;8.60;;;;;;;22.59;70.41;101692.84;4992357;28;20493;-72
2023/07/06 07:50:56;;;;;;;23.88;7.18;;;;;;;23.00;71.82;101695.16;4987662;28;20054;-71
2023/07/06 07:53:23;;;;;;;27.80;7.72;;;;;;;23.02;71.38;101701.31;4992139;28;20054;-71
2023/07/06 07:55:48;;;;;;;;;;;;;;;21.81;72.56;101704.00;4988642;28;20026;-71
2023/07/06 07:58:14;;;;;;;18.08;7.15;;;;;;;22.12;75.10;101697.03;4992180;28;19936;-71
2023/07/06 08:00:39;;;;;;;18.27;7.63;;;;;;;22.21;75.00;101695.53;4988787;28;20446;-72
2023/07/06 08:03:05;;;;;;;22.63;6.77;;;;;;;22.12;74.89;101697.91;4987141;28;20026;-71
2023/07/06 08:05:31;;;;;;;20.10;5.37;;;;;;;22.04;74.54;101698.28;4988919;28;20513;-72
2023/07/06 08:07:56;;;;;;;18.52;6.65;;;;;;;21.84;74.03;101697.09;4988094;28;20030;-71
2023/07/06 08:10:22;;;;;;;16.90;6.93;;;;;;;21.55;74.10;101703.75;4989793;28;20034;-70
2023/07/06 08:12:48;;;;;;;13.37;6.20;;;;;;;21.53;76.13;101703.13;4990993;28;20479;-72
2023/07/06 08:15:14;;;;;;;19.77;6.00;;;;;;;21.06;75.49;101701.56;4989823;28;20279;-72
2023/07/06 08:17:41;;;;;;;15.40;5.35;;;;;;;21.23;77.06;101696.94;4990585;28;20060;-70
2023/07/06 08:20:07;;;;;;;;;;;;;;;21.57;76.45;101698.75;4988633;28;20129;-71
2023/07/06 08:22:35;;;;;;;23.02;5.38;;;;;;;21.53;73.95;101706.78;5004560;28;19917;-71
2023/07/06 08:25:00;;;;;;;17.63;5.07;;;;;;;21.05;75.20;101716.59;4988988;28;20022;-70
2023/07/06 08:27:26;;;;;;;13.53;5.83;;;;;;;20.81;76.63;101721.31;4990812;28;20406;-71
2023/07/06 08:29:52;;;;;;;16.00;5.43;;;;;;;21.13;75.66;101713.44;4990454;28;20015;-71
2023/07/06 08:32:19;;;;;;;17.93;5.17;;;;;;;21.15;75.79;101705.66;4989934;28;20034;-71
2023/07/06 08:34:44;;;;;;;18.33;5.88;;;;;;;21.35;75.49;101714.47;4975206;28;20529;-71
2023/07/06 08:37:10;;;;;;;16.77;5.87;;;;;;;21.31;73.20;101714.13;4981998;28;20034;-72
2023/07/06 08:39:35;;;;;;;16.70;5.73;;;;;;;21.09;74.52;101709.44;4986077;28;20065;-70
2023/07/06 08:42:01;;;;;;;11.47;4.27;;;;;;;21.48;74.74;101723.41;4989485;28;20026;-72
2023/07/06 08:44:27;;;;;;;17.80;4.53;;;;;;;21.54;72.33;101721.56;4987314;28;20491;-71
2023/07/06 08:46:55;;;;;;;17.52;5.65;;;;;;;21.15;72.26;101725.19;4988266;28;20760;-71
2023/07/06 08:49:32;;;;;;;13.25;5.07;;;;;;;21.10;72.93;101730.63;4990286;28;20364;-73
2023/07/06 08:52:01;;;;;;;;;;;;;;;21.47;72.59;101726.44;4984451;28;20026;-71
2023/07/06 08:54:27;;;;;;;15.93;5.32;;;;;;;21.51;70.36;101727.63;4987483;28;20297;-72
2023/07/06 08:56:53;;;;;;;12.80;4.10;;;;;;;21.17;68.89;101731.34;4989564;28;20026;-72
2023/07/06 08:59:33;;;;;;;14.20;4.32;;;;;;;21.04;70.62;101737.19;4989461;28;20035;-72
2023/07/06 09:02:30;;;;;;;12.00;4.35;;;;;;;21.75;69.58;101729.25;4987888;28;20026;-72
2023/07/06 09:05:00;;;;;;;10.85;4.53;;;;;;;21.75;67.87;101726.47;4978324;28;20054;-72
2023/07/06 09:07:35;;;;;;;8.18;3.10;;;;;;;21.59;67.86;101722.50;4986741;28;20026;-72
2023/07/06 09:10:11;;;;;;;12.13;3.55;;;;;;;21.72;65.48;101738.16;4986883;28;20029;-71
2023/07/06 09:12:39;;;;;;;10.15;3.35;;;;;;;21.50;68.11;101742.69;4987537;28;20031;-71
2023/07/06 09:15:08;;;;;;;12.32;3.45;;;;;;;21.17;67.16;101745.28;4989892;28;20045;-73
2023/07/06 09:17:34;;;;;;;10.63;3.10;;;;;;;21.04;67.25;101742.75;4993414;28;20056;-71
2023/07/06 09:20:03;;;;;;;16.90;3.72;;;;;;;21.07;66.68;101740.34;4990790;28;20561;-73
2023/07/06 09:22:29;;;;;;;6.95;2.53;;;;;;;20.82;65.73;101745.28;5003800;28;20482;-72
2023/07/06 09:25:00;;;;;;;13.47;3.43;;;;;;;20.63;66.88;101737.28;4991600;28;20061;-71
2023/07/06 09:27:28;;;;;;;14.23;4.13;;;;;;;21.35;66.28;101737.59;4987396;28;20034;-71
2023/07/06 09:30:00;;;;;;;12.98;3.00;;;;;;;21.98;66.30;101738.38;4993309;28;20117;-73
2023/07/06 09:32:27;;;;;;;7.68;3.35;;;;;;;22.08;65.53;101737.75;4990666;28;20053;-71
2023/07/06 09:34:55;;;;;;;15.98;3.60;;;;;;;22.40;63.97;101744.47;4991836;28;20053;-72
2023/07/06 09:37:22;;;;;;;12.68;3.55;;;;;;;22.03;65.17;101743.22;4989380;28;20491;-72
2023/07/06 09:40:10;;;;;;;15.80;3.47;;;;;;;21.84;64.70;101733.34;4990991;28;20027;-72
2023/07/06 09:42:36;;;;;;;11.05;3.03;;;;;;;22.28;63.71;101757.63;4992934;28;20478;-71
2023/07/06 09:45:19;;;;;;;9.50;2.70;;;;;;;22.34;58.50;101760.28;4989791;28;20076;-72
2023/07/06 09:47:52;;;;;;;10.18;2.20;;;;;;;23.03;59.33;101758.91;4982609;28;20038;-72
2023/07/06 09:50:22;;;;;;;14.30;3.08;;;;;;;23.01;58.77;101749.94;4988605;28;20026;-72
2023/07/06 09:52:48;;;;;;;13.32;2.60;;;;;;;22.67;58.33;101757.50;4986896;28;20497;-72
2023/07/06 09:55:23;;;;;;;9.73;2.58;;;;;;;22.23;60.68;101758.41;4986811;28;20030;-72
2023/07/06 09:57:49;;;;;;;8.38;2.20;;;;;;;22.15;60.14;101752.38;4987891;28;20038;-71
2023/07/06 10:00:22;;;;;;;8.48;2.28;;;;;;;22.39;56.97;101768.75;4990476;28;20034;-72
2023/07/06 10:03:08;;;;;;;5.63;2.15;;;;;;;22.83;56.87;101756.66;4986352;28;20102;-72
2023/07/06 10:05:43;;;;;;;6.40;2.05;;;;;;;23.14;57.71;101764.41;4986234;28;20030;-72
2023/07/06 10:08:11;;;;;;;5.80;2.15;;;;;;;22.88;53.69;101772.69;4982004;28;20038;-72
2023/07/06 10:11:09;;;;;;;7.38;2.10;;;;;;;22.60;54.46;101767.16;4986479;28;20105;-71
2023/07/06 10:14:02;;;;;;;5.28;1.83;;;;;;;22.14;54.77;101771.06;4986498;28;20398;-72
2023/07/06 10:16:53;;;;;;;12.07;1.80;;;;;;;21.65;51.24;101779.22;4986478;28;20042;-72
2023/07/06 10:19:31;;;;;;;5.93;1.63;;;;;;;21.58;53.17;101772.97;4987275;28;20037;-72
2023/07/06 10:22:20;;;;;;;7.65;1.67;;;;;;;21.70;52.65;101776.59;4987104;28;20057;-72
2023/07/06 10:25:00;;;;;;;5.43;1.20;;;;;;;22.07;49.28;101777.88;4985927;28;20108;-73
2023/07/06 10:27:33;;;;;;;4.20;1.52;;;;;;;21.77;49.06;101771.72;4986204;28;20181;-73
2023/07/06 10:30:08;;;;;;;4.43;1.58;;;;;;;22.62;48.20;101781.75;4987430;28;20474;-72
2023/07/06 10:32:40;;;;;;;13.10;1.75;;;;;;;22.99;48.31;101768.94;4983046;28;20577;-72
2023/07/06 10:35:11;;;;;;;5.95;1.65;;;;;;;23.03;46.58;101784.94;4984626;28;20149;-73
2023/07/06 10:37:39;;;;;;;3.33;1.35;;;;;;;23.01;46.09;101781.56;4988132;28;20033;-72
2023/07/06 10:40:19;;;;;;;4.93;1.60;;;;;;;23.35;46.38;101779.53;4991256;28;20510;-72
2023/07/06 10:42:49;;;;;;;6.38;1.20;;;;;;;23.72;44.74;101784.25;4993595;28;20568;-72
2023/07/06 10:45:38;;;;;;;5.28;1.50;;;;;;;23.07;45.29;101771.28;4988462;28;20053;-72
2023/07/06 10:48:24;;;;;;;7.93;1.35;;;;;;;23.10;44.74;101784.75;4991599;28;20450;-72
2023/07/06 10:51:05;;;;;;;3.38;1.40;;;;;;;23.71;43.53;101778.91;4987025;28;20068;-72
2023/07/06 10:53:47;;;;;;;5.30;1.58;;;;;;;24.29;44.89;101788.31;4984333;28;20444;-71
2023/07/06 10:56:22;;;;;;;5.25;1.80;;;;;;;23.54;44.40;101776.16;4985425;28;20032;-71
2023/07/06 10:58:55;;;;;;;3.05;1.00;;;;;;;24.00;43.75;101786.03;4983579;28;20057;-73
2023/07/06 11:01:22;;;;;;;2.17;0.90;;;;;;;23.95;41.65;101799.97;4992033;28;20041;-73
2023/07/06 11:03:48;;;;;;;2.75;1.13;;;;;;;23.29;41.71;101803.81;4986181;28;20474;-73
2023/07/06 11:06:36;;;;;;;5.57;1.13;;;;;;;23.36;42.53;101801.66;4990941;28;20117;-72
2023/07/06 11:09:05;;;;;;;;;;;;;;;23.29;42.68;101808.53;4987400;28;20037;-73
2023/07/06 11:11:51;;;;;;;3.72;1.40;;;;;;;23.02;44.85;101799.16;4990985;28;19913;-73
2023/07/06 11:14:31;;;;;;;5.75;1.20;;;;;;;23.49;45.45;101806.03;4987700;28;20030;-72
2023/07/06 11:17:26;;;;;;;6.70;1.63;;;;;;;23.89;45.40;101806.59;4981976;28;20077;-73
2023/07/06 11:20:15;;;;;;;3.55;1.50;;;;;;;23.41;44.53;101803.69;4982031;28;20096;-72
2023/07/06 11:22:44;;;;;;;4.45;1.23;;;;;;;23.20;44.54;101798.94;4991586;28;20515;-72
2023/07/06 11:25:12;;;;;;;5.50;0.88;;;;;;;23.57;43.29;101813.97;4986711;28;20478;-72
2023/07/06 11:27:44;;;;;;;5.63;1.00;;;;;;;23.39;42.39;101817.09;4985145;28;20093;-72
2023/07/06 11:30:13;;;;;;;3.50;1.13;;;;;;;23.17;44.34;101808.66;4987859;28;20106;-73
2023/07/06 11:32:55;;;;;;;3.30;1.17;;;;;;;22.96;44.20;101805.78;4991833;28;20054;-73
2023/07/06 11:35:24;;;;;;;5.38;1.20;;;;;;;23.28;45.07;101807.72;4992296;28;20114;-72
2023/07/06 11:37:49;;;;;;;6.13;1.48;;;;;;;23.59;45.22;101811.78;4986911;28;20033;-72
2023/07/06 11:40:38;;;;;;;4.77;1.23;;;;;;;24.33;44.12;101803.44;4989346;28;20035;-72
2023/07/06 11:43:26;;;;;;;5.05;1.20;;;;;;;24.22;41.96;101820.44;4990338;28;21105;-72
2023/07/06 11:46:10;;;;;;;4.80;1.20;;;;;;;24.57;41.89;101816.03;4990548;28;20033;-72
2023/07/06 11:49:02;;;;;;;3.97;1.00;;;;;;;24.20;42.04;101820.69;4986050;28;20105;-73
2023/07/06 11:51:30;;;;;;;5.32;1.30;;;;;;;24.41;41.99;101822.59;4991802;28;20030;-73
2023/07/06 11:53:59;;;;;;;3.10;1.10;;;;;;;24.67;41.34;101826.53;4990367;28;20042;-73
2023/07/06 11:56:50;;;;;;;5.15;1.15;;;;;;;24.61;41.81;101821.97;4989791;28;20482;-72